Weather reports worldwide

Advertisment
Langdon Bay, United Kingdom (3796): temperature & dewpoint: 16.09.2020 23:00:00 - 22.09.2020 23:00:00 (BST)Langdon Bay, United Kingdom (3796): wind speed & gusts: 16.09.2020 23:00:00 - 22.09.2020 23:00:00 (BST)Langdon Bay, United Kingdom (3796): wind direction: 16.09.2020 23:00:00 - 22.09.2020 23:00:00 (BST)Langdon Bay, United Kingdom (3796): reduced air pressure: 16.09.2020 23:00:00 - 22.09.2020 23:00:00 (BST)
Date & Time tt [°C] td [°C] ff [km/h] ff [kn] fx [km/h] fx [kn] dd ppp [hPa]
22.09.2020 23:00:00 16,8 15,9 15 8 - - SW 1006,2
22.09.2020 22:00:00 16,6 15,8 21 11 - - WSW 1006,7
22.09.2020 21:00:00 16,1 15,2 22 12 - - WSW 1007,0
22.09.2020 20:00:00 16,5 15,4 18 10 - - SW 1007,1
22.09.2020 19:00:00 16,5 15,3 18 10 - - SW 1007,1
22.09.2020 18:00:00 16,5 15,0 21 11 - - SW 1007,3
22.09.2020 17:00:00 18,0 15,4 15 8 - - SW 1007,6
22.09.2020 16:00:00 19,6 14,8 15 8 - - SW 1008,4
22.09.2020 15:00:00 18,4 13,1 16 9 - - SW 1009,2
22.09.2020 14:00:00 19,5 14,6 16 9 - - SSW 1009,7
22.09.2020 13:00:00 19,4 16,1 13 7 - - SSW 1010,2
22.09.2020 12:00:00 18,8 15,8 13 7 - - SW 1010,9
22.09.2020 11:00:00 18,5 15,9 13 7 - - SSW 1011,5
22.09.2020 10:00:00 17,1 15,6 16 9 - - SW 1011,9
22.09.2020 09:00:00 16,7 14,8 15 8 - - SW 1012,0
22.09.2020 08:00:00 15,5 13,7 13 7 - - WSW 1012,1
22.09.2020 07:00:00 14,8 14,3 11 6 - - WSW 1012,2
22.09.2020 06:00:00 14,9 14,1 13 7 - - WSW 1012,4
22.09.2020 05:00:00 14,7 11,6 9 5 - - WSW 1012,7
22.09.2020 04:00:00 15,3 8,5 9 5 - - W 1013,1
22.09.2020 03:00:00 14,9 9,4 11 6 - - W 1013,6
22.09.2020 02:00:00 14,6 9,2 9 5 - - W 1014,2
22.09.2020 01:00:00 13,8 8,8 11 6 - - W 1014,9
22.09.2020 00:00:00 14,5 12,1 9 5 - - WSW 1015,3
21.09.2020 23:00:00 14,2 9,9 8 4 - - SW 1015,6
21.09.2020 22:00:00 13,8 11,1 5 3 - - WSW 1015,7
21.09.2020 21:00:00 13,4 12,3 2 1 - - SE 1015,8
21.09.2020 20:00:00 14,1 12,7 9 5 - - NNW 1015,8
21.09.2020 19:00:00 15,1 12,0 13 7 - - N 1015,6
21.09.2020 18:00:00 17,9 12,9 11 6 - - NNE 1015,8
21.09.2020 17:00:00 19,7 11,9 11 6 - - NNE 1016,0
21.09.2020 16:00:00 20,7 11,8 13 7 - - NE 1016,2
21.09.2020 15:00:00 21,6 10,9 11 6 - - NE 1016,5
21.09.2020 14:00:00 21,3 10,8 11 6 - - NE 1016,9
21.09.2020 13:00:00 21,5 11,4 13 7 - - NNE 1017,1
21.09.2020 12:00:00 22,0 14,5 18 10 - - N 1017,3
21.09.2020 11:00:00 20,1 14,0 22 12 - - NNE 1017,5
21.09.2020 10:00:00 17,2 16,6 16 9 - - N 1018,0
21.09.2020 09:00:00 16,3 16,3 15 8 - - N 1017,7
21.09.2020 08:00:00 14,2 14,2 16 9 - - NNW 1017,6
21.09.2020 07:00:00 12,1 12,0 18 10 - - NNW 1017,6
21.09.2020 06:00:00 12,4 12,2 18 10 - - NNW 1017,4
21.09.2020 05:00:00 12,1 11,9 18 10 - - NNW 1017,4
21.09.2020 04:00:00 12,3 11,9 18 10 - - NNW 1017,4
21.09.2020 03:00:00 13,2 12,7 18 10 - - N 1017,7
21.09.2020 02:00:00 13,6 12,9 21 11 - - NNE 1018,0
21.09.2020 01:00:00 14,2 13,5 24 13 - - NNE 1018,2
21.09.2020 00:00:00 14,3 13,2 26 14 - - NNE 1018,2
20.09.2020 23:00:00 14,5 13,0 26 14 - - NNE 1018,4
20.09.2020 22:00:00 14,8 12,6 26 14 - - NNE 1018,6
20.09.2020 21:00:00 15,2 12,5 34 18 - - NNE 1018,4
20.09.2020 20:00:00 15,6 12,6 34 18 - - NNE 1018,2
20.09.2020 19:00:00 16,2 12,4 28 15 - - N 1018,1
20.09.2020 18:00:00 18,1 12,6 34 18 48 26 N 1017,6
20.09.2020 17:00:00 19,3 12,9 35 19 46 25 NNE 1017,4
20.09.2020 16:00:00 20,2 12,4 35 19 - - NNE 1017,4
20.09.2020 15:00:00 21,5 12,9 34 18 - - N 1017,4
20.09.2020 14:00:00 21,1 13,2 31 17 48 26 NNE 1017,5
20.09.2020 13:00:00 20,5 13,0 34 18 50 27 NNE 1017,6
20.09.2020 12:00:00 20,7 13,6 39 21 54 29 NNE 1017,5
20.09.2020 11:00:00 20,7 14,9 37 20 52 28 NNE 1017,5
20.09.2020 10:00:00 18,2 15,0 39 21 50 27 NNE 1017,4
20.09.2020 09:00:00 17,4 15,1 35 19 46 25 NNE 1017,1
20.09.2020 08:00:00 17,1 15,8 34 18 - - N 1016,5
20.09.2020 07:00:00 15,5 14,6 34 18 - - N 1016,2
20.09.2020 06:00:00 15,7 14,5 31 17 - - N 1016,1
20.09.2020 05:00:00 15,6 14,4 28 15 - - N 1016,1
20.09.2020 04:00:00 15,8 14,3 28 15 - - N 1015,9
20.09.2020 03:00:00 15,9 14,4 28 15 - - N 1016,0
20.09.2020 02:00:00 16,1 14,5 31 17 - - N 1016,0
20.09.2020 01:00:00 16,2 14,4 29 16 - - N 1016,1
20.09.2020 00:00:00 16,5 14,1 34 18 - - N 1016,2
19.09.2020 23:00:00 16,5 13,8 31 17 - - N 1016,4
19.09.2020 22:00:00 16,5 14,0 34 18 - - N 1016,2
19.09.2020 21:00:00 16,4 13,8 35 19 - - N 1015,9
19.09.2020 20:00:00 16,8 13,9 31 17 46 25 N 1016,0
19.09.2020 19:00:00 16,9 13,6 35 19 48 26 N 1015,5
19.09.2020 18:00:00 17,6 13,5 37 20 46 25 N 1015,1
19.09.2020 17:00:00 18,4 13,7 35 19 48 26 NNE 1015,2
19.09.2020 16:00:00 18,6 13,1 34 18 50 27 NNE 1015,4
19.09.2020 15:00:00 20,0 13,7 37 20 50 27 NNE 1015,5
19.09.2020 14:00:00 18,9 12,5 37 20 48 26 NE 1015,9
19.09.2020 13:00:00 19,3 13,0 37 20 54 29 NE 1016,1
19.09.2020 12:00:00 19,9 13,5 37 20 50 27 NE 1015,9
19.09.2020 11:00:00 19,6 13,5 39 21 48 26 NE 1015,9
19.09.2020 10:00:00 18,9 13,8 31 17 50 27 NE 1016,8
19.09.2020 09:00:00 17,9 13,3 39 21 54 29 NE 1016,0
19.09.2020 08:00:00 16,7 13,7 37 20 50 27 NE 1016,0
19.09.2020 07:00:00 15,7 13,5 35 19 46 25 NE 1016,3
19.09.2020 06:00:00 15,6 13,2 31 17 - - NE 1016,3
19.09.2020 05:00:00 15,6 13,3 29 16 - - NE 1016,7
19.09.2020 04:00:00 15,5 13,0 26 14 - - NNE 1016,6
19.09.2020 03:00:00 15,9 12,8 28 15 - - NE 1017,3
19.09.2020 02:00:00 16,0 12,7 29 16 - - NE 1017,8
19.09.2020 01:00:00 16,3 12,8 31 17 - - NE 1018,4
19.09.2020 00:00:00 16,4 12,8 31 17 - - NNE 1018,9
18.09.2020 23:00:00 16,5 13,3 29 16 - - NNE 1019,4
18.09.2020 22:00:00 16,3 14,2 29 16 - - NNE 1019,6
18.09.2020 21:00:00 16,2 14,0 34 18 - - NNE 1019,7
18.09.2020 20:00:00 16,1 13,7 35 19 - - NNE 1019,4
18.09.2020 19:00:00 16,4 13,2 35 19 48 26 NNE 1019,1
18.09.2020 18:00:00 17,2 12,7 35 19 46 25 NNE 1019,3
18.09.2020 17:00:00 17,3 12,1 37 20 48 26 NNE 1020,0
18.09.2020 16:00:00 18,4 11,8 37 20 50 27 NNE 1020,0
18.09.2020 15:00:00 19,0 11,5 35 19 52 28 NNE 1020,5
18.09.2020 14:00:00 19,0 10,8 37 20 52 28 NE 1021,0
18.09.2020 13:00:00 19,0 10,6 35 19 50 27 NE 1022,0
18.09.2020 12:00:00 18,8 11,1 34 18 50 27 NE 1022,4
18.09.2020 11:00:00 17,8 11,4 35 19 46 25 NE 1023,1
18.09.2020 10:00:00 16,9 11,1 37 20 50 27 ENE 1022,8
18.09.2020 09:00:00 16,4 11,8 35 19 48 26 ENE 1022,5
18.09.2020 08:00:00 15,1 11,0 31 17 - - ENE 1022,6
18.09.2020 07:00:00 14,0 10,4 29 16 - - ENE 1023,0
18.09.2020 06:00:00 13,7 10,0 26 14 - - ENE 1023,1
18.09.2020 05:00:00 13,9 9,5 26 14 - - ENE 1023,2
18.09.2020 04:00:00 14,5 10,0 28 15 - - ENE 1023,6
18.09.2020 03:00:00 14,5 9,9 29 16 - - ENE 1023,9
18.09.2020 02:00:00 14,5 9,6 31 17 - - ENE 1024,2
18.09.2020 01:00:00 14,9 9,2 31 17 52 28 ENE 1024,6
18.09.2020 00:00:00 15,3 8,9 37 20 54 29 ENE 1025,2
17.09.2020 23:00:00 15,5 9,0 39 21 54 29 ENE 1025,4
17.09.2020 22:00:00 15,5 8,9 35 19 52 28 ENE 1025,6
17.09.2020 21:00:00 15,1 10,5 35 19 50 27 NE 1025,8
17.09.2020 20:00:00 14,8 9,6 34 18 50 27 NE 1025,9
17.09.2020 19:00:00 14,8 9,4 37 20 50 27 NE 1025,6
17.09.2020 18:00:00 15,6 9,8 37 20 50 27 NE 1025,7
17.09.2020 17:00:00 16,7 9,2 34 18 50 27 NE 1026,2
17.09.2020 16:00:00 17,8 10,6 31 17 50 27 NE 1026,5
17.09.2020 15:00:00 18,5 11,4 35 19 50 27 NE 1026,8
17.09.2020 14:00:00 18,2 11,1 35 19 52 28 ENE 1027,5
17.09.2020 13:00:00 18,3 11,6 37 20 52 28 ENE 1028,1
17.09.2020 12:00:00 18,1 10,5 39 21 54 29 ENE 1028,2
17.09.2020 11:00:00 17,3 10,7 35 19 50 27 ENE 1028,6
17.09.2020 10:00:00 16,8 11,1 34 18 46 25 ENE 1028,6
17.09.2020 09:00:00 15,7 10,8 34 18 48 26 ENE 1028,4
17.09.2020 08:00:00 15,1 11,2 34 18 48 26 NE 1028,1
17.09.2020 07:00:00 14,6 11,2 35 19 50 27 NE 1027,9
17.09.2020 06:00:00 14,6 11,3 35 19 50 27 NE 1027,5
17.09.2020 05:00:00 14,9 11,8 31 17 48 26 NE 1027,5
17.09.2020 04:00:00 15,1 11,7 35 19 48 26 NE 1027,6
17.09.2020 03:00:00 15,3 12,5 31 17 48 26 NE 1027,9
17.09.2020 02:00:00 15,5 12,7 35 19 50 27 NNE 1027,9
17.09.2020 01:00:00 15,7 13,3 35 19 50 27 NNE 1027,8
17.09.2020 00:00:00 15,9 13,9 37 20 50 27 NNE 1027,7
16.09.2020 23:00:00 16,0 13,9 37 20 52 28 NNE 1027,3

tt = temperature
td = dewpoint
ff = wind speed
fx = gusts
dd = wind direction
ppp = reduced air pressure

Next stations